PWSweather.com
Personal Weather Stations
Station Observations
238362
MilevskoCZ 39901

MilevskoCZ 39901

Lat: 49.44648754, Lon: 14.36534017

Elevation: 1558

Station Type: W-8681

http://www.meteomilevsko.cz

Latest ConditionsUpdated 6:15:09 AM GMT+01:01 Saturday, Jan 18, 2020
Currently Today's Max Today's Min Today's Average
Temperature 32.4°F0.2°C 32.4°F0.2°C 30.9°F-0.6°C 31.8°F-0.1°C
Dew Point 29.2°F-1.6°C 29.4°F-1.4°C 28.1°F-2.2°C 28.9°F-1.7°C
Winds Calm Calm 3.8 mph -6.1 kmh - - 1.6 mph 2.6 kmh
Wind Gusts -- 6.9 mph11.1 kmh - -
Humidity 88% 90% 88% 89%
Pressure 30.29 in1025.7 mb 30.29 in1025.7 mb 30.24 in1024.0 mb -
Precipitation - 0.04 in1.0 mm - -
Hour Temp Dew Point Humidity Winds Wind Gusts Pressure Precip Precip Rate Daily Precip Total
06:15 AM 32.4°F0.2°C 29.2°F-1.6°C 88% Calm Calm -- 30.29 in1025.7 mb 0.01 in0.3 mm 0.00 in0.0 mm 0.04 in1.0 mm
06:00 AM 32.4°F0.2°C 29.2°F-1.6°C 88% Calm Calm -- 30.29 in1025.7 mb 0.01 in0.3 mm 0.00 in0.0 mm 0.04 in1.0 mm
05:45 AM 32.4°F0.2°C 29.2°F-1.6°C 88% Calm Calm -- 30.28 in1025.4 mb 0.01 in0.3 mm 0.00 in0.0 mm 0.04 in1.0 mm
05:30 AM 32.2°F0.1°C 29.0°F-1.7°C 88% Calm Calm -- 30.28 in1025.4 mb 0.01 in0.3 mm 0.00 in0.0 mm 0.02 in0.5 mm
05:15 AM 32.2°F0.1°C 29.0°F-1.7°C 88% Calm Calm -- 30.28 in1025.4 mb 0.01 in0.3 mm 0.00 in0.0 mm 0.02 in0.5 mm
05:00 AM 32.2°F0.1°C 29.0°F-1.7°C 88% Calm Calm -- 30.28 in1025.4 mb 0.01 in0.3 mm 0.00 in0.0 mm 0.02 in0.5 mm
04:45 AM 32.2°F0.1°C 29.0°F-1.7°C 88% Calm Calm -- 30.28 in1025.4 mb 0.01 in0.3 mm 0.00 in0.0 mm 0.02 in0.5 mm
04:30 AM 32.2°F0.1°C 29.0°F-1.7°C 88% Calm Calm -- 30.27 in1025.1 mb 0.01 in0.3 mm 0.00 in0.0 mm 0.01 in0.3 mm
04:15 AM 32.2°F0.1°C 29.0°F-1.7°C 88% Calm Calm -- 30.27 in1025.1 mb 0.01 in0.3 mm 0.00 in0.0 mm 0.01 in0.3 mm
04:00 AM 32.2°F0.1°C 29.0°F-1.7°C 88% Calm Calm -- 30.27 in1025.1 mb 0.01 in0.3 mm 0.00 in0.0 mm 0.01 in0.3 mm
03:45 AM 32.2°F0.1°C 29.3°F-1.5°C 89% 0.7 mph SE1.1 kmh SE 6.0 mph9.7 kmh 30.27 in1025.1 mb 0.01 in0.3 mm 0.04 in1.0 mm 0.01 in0.3 mm
03:30 AM 32.0°F0.0°C 29.1°F-1.6°C 89% 3.8 mph SE6.1 kmh SE 5.4 mph8.7 kmh 30.27 in1025.1 mb 0.00 in0.0 mm 0.00 in0.0 mm 0.00 in0.0 mm
03:15 AM 32.0°F0.0°C 29.1°F-1.6°C 89% 3.1 mph SE5.0 kmh SE 4.5 mph7.2 kmh 30.26 in1024.7 mb 0.00 in0.0 mm 0.00 in0.0 mm 0.00 in0.0 mm
03:00 AM 32.0°F0.0°C 29.1°F-1.6°C 89% 2.2 mph SE3.5 kmh SE 5.4 mph8.7 kmh 30.26 in1024.7 mb 0.00 in0.0 mm 0.00 in0.0 mm 0.00 in0.0 mm
02:45 AM 32.0°F0.0°C 29.4°F-1.4°C 90% 3.1 mph SE5.0 kmh SE 4.5 mph7.2 kmh 30.27 in1025.1 mb 0.00 in0.0 mm 0.00 in0.0 mm 0.00 in0.0 mm
02:30 AM 32.0°F0.0°C 29.4°F-1.4°C 90% 1.6 mph SE2.6 kmh SE 3.8 mph6.1 kmh 30.27 in1025.1 mb 0.00 in0.0 mm 0.00 in0.0 mm 0.00 in0.0 mm
02:15 AM 31.8°F-0.1°C 29.2°F-1.6°C 90% 3.8 mph SE6.1 kmh SE 6.0 mph9.7 kmh 30.26 in1024.7 mb 0.00 in0.0 mm 0.00 in0.0 mm 0.00 in0.0 mm
02:00 AM 31.6°F-0.2°C 29.1°F-1.6°C 90% 1.6 mph SE2.6 kmh SE 3.8 mph6.1 kmh 30.26 in1024.7 mb 0.00 in0.0 mm 0.00 in0.0 mm 0.00 in0.0 mm
01:45 AM 31.5°F-0.3°C 28.9°F-1.7°C 90% 1.6 mph SE2.6 kmh SE 3.8 mph6.1 kmh 30.25 in1024.4 mb 0.00 in0.0 mm 0.00 in0.0 mm 0.00 in0.0 mm
01:30 AM 31.3°F-0.4°C 28.7°F-1.8°C 90% 1.6 mph SE2.6 kmh SE 3.8 mph6.1 kmh 30.25 in1024.4 mb 0.00 in0.0 mm 0.00 in0.0 mm 0.00 in0.0 mm
01:15 AM 31.3°F-0.4°C 28.7°F-1.8°C 90% 1.6 mph ESE2.6 kmh ESE 5.4 mph8.7 kmh 30.25 in1024.4 mb 0.00 in0.0 mm 0.00 in0.0 mm 0.00 in0.0 mm
01:00 AM 31.3°F-0.4°C 28.7°F-1.8°C 90% 2.2 mph SE3.5 kmh SE 6.9 mph11.1 kmh 30.25 in1024.4 mb 0.00 in0.0 mm 0.00 in0.0 mm 0.00 in0.0 mm
12:45 AM 31.1°F-0.5°C 28.3°F-2.1°C 89% 3.8 mph ESE6.1 kmh ESE 6.0 mph9.7 kmh 30.25 in1024.4 mb 0.00 in0.0 mm 0.00 in0.0 mm 0.00 in0.0 mm
12:30 AM 31.1°F-0.5°C 28.3°F-2.1°C 89% 3.8 mph SSE6.1 kmh SSE 6.0 mph9.7 kmh 30.24 in1024.0 mb 0.00 in0.0 mm 0.00 in0.0 mm 0.00 in0.0 mm
12:15 AM 30.9°F-0.6°C 28.1°F-2.2°C 89% 3.1 mph ESE5.0 kmh ESE 5.4 mph8.7 kmh 30.24 in1024.0 mb 0.00 in0.0 mm 0.00 in0.0 mm 0.00 in0.0 mm
12:00 AM 30.9°F-0.6°C 28.1°F-2.2°C 89% 3.1 mph SE5.0 kmh SE 6.0 mph9.7 kmh 30.24 in1024.0 mb 0.00 in0.0 mm 0.00 in0.0 mm 0.00 in0.0 mm